sim
Sign-in with your pilot id or email,
or register
Callsign
Passwort

Schedule Details

Flight Number: DLH2139 (1)
Departure: Munster Osnabruck International -?Airport (EDDG) at 19:45
Arrival: Munich Airport (EDDM) at 20:50
Route: Lufthansa Passenger Schedule. Enter filed route here before submitting Pirep.

Weather Information
Getting current METAR information for EDDG 010650Z 12004KT 060V160 CAVOK 12/10 Q1004 NOSIG
Getting current METAR information for EDDM 010650Z 00000KT 0800 R08L/0400U R08R/0275N FG SCT001 06/05 Q1009 BECMG 1500 BCFG

Schedule Frequency

Route Map